sensor_id;sensor_type;location;lat;lon;timestamp;pressure;altitude;pressure_sealevel;temperature;humidity
31088;BME280;17745;55.914;37.554;2022-08-21T00:01:58;100064.25;;;19.79;36.26
31088;BME280;17745;55.914;37.554;2022-08-21T00:04:27;100071.91;;;19.71;36.30
31088;BME280;17745;55.914;37.554;2022-08-21T00:06:56;100071.97;;;19.66;36.43
31088;BME280;17745;55.914;37.554;2022-08-21T00:09:26;100072.84;;;19.62;36.46
31088;BME280;17745;55.914;37.554;2022-08-21T00:11:59;100069.12;;;19.57;36.54
31088;BME280;17745;55.914;37.554;2022-08-21T00:14:30;100065.44;;;19.53;36.59
31088;BME280;17745;55.914;37.554;2022-08-21T00:17:01;100059.88;;;19.50;36.72
31088;BME280;17745;55.914;37.554;2022-08-21T00:19:31;100051.88;;;19.45;36.76
31088;BME280;17745;55.914;37.554;2022-08-21T00:22:00;100060.50;;;19.41;36.83
31088;BME280;17745;55.914;37.554;2022-08-21T00:24:29;100059.50;;;19.37;36.86
31088;BME280;17745;55.914;37.554;2022-08-21T00:26:57;100056.91;;;19.32;36.96
31088;BME280;17745;55.914;37.554;2022-08-21T00:35:22;100053.47;;;19.26;37.26
31088;BME280;17745;55.914;37.554;2022-08-21T00:37:55;100056.25;;;19.21;37.26
31088;BME280;17745;55.914;37.554;2022-08-21T00:40:52;100052.50;;;19.17;37.34
31088;BME280;17745;55.914;37.554;2022-08-21T00:43:28;100050.91;;;19.16;37.48
31088;BME280;17745;55.914;37.554;2022-08-21T00:46:05;100057.97;;;19.12;37.50
31088;BME280;17745;55.914;37.554;2022-08-21T00:48:34;100055.62;;;19.05;37.51
31088;BME280;17745;55.914;37.554;2022-08-21T00:51:05;100048.16;;;19.02;37.65
31088;BME280;17745;55.914;37.554;2022-08-21T00:53:37;100048.72;;;18.99;37.75
31088;BME280;17745;55.914;37.554;2022-08-21T00:56:08;100046.59;;;18.96;37.83
31088;BME280;17745;55.914;37.554;2022-08-21T00:58:39;100038.03;;;18.94;37.88
31088;BME280;17745;55.914;37.554;2022-08-21T01:01:09;100034.03;;;18.91;37.93
31088;BME280;17745;55.914;37.554;2022-08-21T01:03:40;100041.59;;;18.89;37.97
31088;BME280;17745;55.914;37.554;2022-08-21T01:06:09;100034.91;;;18.86;38.06
31088;BME280;17745;55.914;37.554;2022-08-21T01:08:39;100037.06;;;18.84;38.08
31088;BME280;17745;55.914;37.554;2022-08-21T01:11:11;100043.00;;;18.81;38.17
31088;BME280;17745;55.914;37.554;2022-08-21T01:32:29;100052.38;;;18.60;38.63
31088;BME280;17745;55.914;37.554;2022-08-21T01:35:18;100045.94;;;18.61;38.64
31088;BME280;17745;55.914;37.554;2022-08-21T01:37:56;100053.97;;;18.61;38.62
31088;BME280;17745;55.914;37.554;2022-08-21T01:40:27;100048.09;;;18.58;38.63
31088;BME280;17745;55.914;37.554;2022-08-21T01:42:58;100046.78;;;18.56;38.69
31088;BME280;17745;55.914;37.554;2022-08-21T01:45:29;100036.34;;;18.54;38.76
31088;BME280;17745;55.914;37.554;2022-08-21T01:48:07;100042.81;;;18.53;38.75
31088;BME280;17745;55.914;37.554;2022-08-21T01:50:40;100039.03;;;18.54;38.85
31088;BME280;17745;55.914;37.554;2022-08-21T01:53:13;100038.00;;;18.50;38.86
31088;BME280;17745;55.914;37.554;2022-08-21T01:55:46;100040.97;;;18.49;38.91
31088;BME280;17745;55.914;37.554;2022-08-21T01:58:19;100040.47;;;18.47;38.90
31088;BME280;17745;55.914;37.554;2022-08-21T02:00:56;100046.09;;;18.45;39.03
31088;BME280;17745;55.914;37.554;2022-08-21T02:03:31;100044.78;;;18.42;39.03
31088;BME280;17745;55.914;37.554;2022-08-21T02:06:13;100038.94;;;18.40;39.16
31088;BME280;17745;55.914;37.554;2022-08-21T02:08:47;100045.62;;;18.38;39.13
31088;BME280;17745;55.914;37.554;2022-08-21T02:11:19;100053.16;;;18.36;39.14
31088;BME280;17745;55.914;37.554;2022-08-21T02:13:56;100045.41;;;18.34;39.19
31088;BME280;17745;55.914;37.554;2022-08-21T02:16:26;100051.84;;;18.33;39.23
31088;BME280;17745;55.914;37.554;2022-08-21T02:19:04;100040.91;;;18.29;39.30
31088;BME280;17745;55.914;37.554;2022-08-21T02:21:32;100056.19;;;18.29;39.34
31088;BME280;17745;55.914;37.554;2022-08-21T02:24:02;100051.13;;;18.27;39.35
31088;BME280;17745;55.914;37.554;2022-08-21T02:26:30;100060.25;;;18.26;39.41
31088;BME280;17745;55.914;37.554;2022-08-21T02:28:58;100058.63;;;18.25;39.45
31088;BME280;17745;55.914;37.554;2022-08-21T02:31:28;100061.28;;;18.25;39.48
31088;BME280;17745;55.914;37.554;2022-08-21T02:33:57;100058.63;;;18.25;39.51
31088;BME280;17745;55.914;37.554;2022-08-21T02:36:33;100062.94;;;18.26;39.52
31088;BME280;17745;55.914;37.554;2022-08-21T02:39:06;100060.25;;;18.26;39.67
31088;BME280;17745;55.914;37.554;2022-08-21T02:41:43;100058.34;;;18.27;39.60
31088;BME280;17745;55.914;37.554;2022-08-21T02:44:15;100064.22;;;18.29;39.64
31088;BME280;17745;55.914;37.554;2022-08-21T02:46:49;100063.13;;;18.30;39.62
31088;BME280;17745;55.914;37.554;2022-08-21T02:49:21;100061.78;;;18.33;39.64
31088;BME280;17745;55.914;37.554;2022-08-21T02:51:58;100058.53;;;18.36;39.63
31088;BME280;17745;55.914;37.554;2022-08-21T02:54:27;100052.84;;;18.42;39.62
31088;BME280;17745;55.914;37.554;2022-08-21T02:56:56;100057.34;;;18.47;39.58
31088;BME280;17745;55.914;37.554;2022-08-21T02:59:23;100057.87;;;18.49;39.56
31088;BME280;17745;55.914;37.554;2022-08-21T03:01:52;100064.25;;;18.53;39.53
31088;BME280;17745;55.914;37.554;2022-08-21T03:04:20;100058.03;;;18.58;39.54
31088;BME280;17745;55.914;37.554;2022-08-21T03:06:48;100058.75;;;18.64;39.48
31088;BME280;17745;55.914;37.554;2022-08-21T03:09:17;100063.28;;;18.68;39.42
31088;BME280;17745;55.914;37.554;2022-08-21T03:11:46;100066.41;;;18.76;39.40
31088;BME280;17745;55.914;37.554;2022-08-21T03:14:18;100059.09;;;18.81;39.33
31088;BME280;17745;55.914;37.554;2022-08-21T03:16:47;100060.13;;;18.85;39.29
31088;BME280;17745;55.914;37.554;2022-08-21T03:19:16;100061.37;;;18.93;39.25
31088;BME280;17745;55.914;37.554;2022-08-21T03:21:43;100061.63;;;18.97;39.21
31088;BME280;17745;55.914;37.554;2022-08-21T03:24:12;100062.06;;;19.04;39.16
31088;BME280;17745;55.914;37.554;2022-08-21T03:26:43;100070.28;;;19.13;39.08
31088;BME280;17745;55.914;37.554;2022-08-21T03:29:12;100073.63;;;19.24;38.96
31088;BME280;17745;55.914;37.554;2022-08-21T03:31:42;100074.59;;;19.33;38.86
31088;BME280;17745;55.914;37.554;2022-08-21T03:34:14;100073.66;;;19.43;38.77
31088;BME280;17745;55.914;37.554;2022-08-21T03:36:46;100076.25;;;19.48;38.74
31088;BME280;17745;55.914;37.554;2022-08-21T03:39:18;100075.09;;;19.54;38.71
31088;BME280;17745;55.914;37.554;2022-08-21T03:41:49;100081.19;;;19.60;38.67
31088;BME280;17745;55.914;37.554;2022-08-21T03:44:21;100083.00;;;19.65;38.56
31088;BME280;17745;55.914;37.554;2022-08-21T03:46:52;100080.31;;;19.65;38.52
31088;BME280;17745;55.914;37.554;2022-08-21T03:49:25;100083.44;;;19.72;38.48
31088;BME280;17745;55.914;37.554;2022-08-21T03:52:00;100076.00;;;19.83;38.34
31088;BME280;17745;55.914;37.554;2022-08-21T03:54:30;100079.34;;;19.94;38.20
31088;BME280;17745;55.914;37.554;2022-08-21T03:57:18;100074.72;;;19.99;38.10
31088;BME280;17745;55.914;37.554;2022-08-21T03:59:50;100082.09;;;20.08;37.97
31088;BME280;17745;55.914;37.554;2022-08-21T04:02:21;100077.72;;;20.12;37.93
31088;BME280;17745;55.914;37.554;2022-08-21T04:04:53;100078.94;;;20.20;37.83
31088;BME280;17745;55.914;37.554;2022-08-21T04:07:21;100075.25;;;20.29;37.70
31088;BME280;17745;55.914;37.554;2022-08-21T04:09:49;100088.25;;;20.41;37.51
31088;BME280;17745;55.914;37.554;2022-08-21T04:12:23;100075.69;;;20.51;37.37
31088;BME280;17745;55.914;37.554;2022-08-21T04:14:52;100076.78;;;20.64;37.18
31088;BME280;17745;55.914;37.554;2022-08-21T04:17:22;100069.12;;;20.71;37.12
31088;BME280;17745;55.914;37.554;2022-08-21T04:19:50;100071.66;;;20.81;36.98
31088;BME280;17745;55.914;37.554;2022-08-21T04:22:18;100066.66;;;20.89;36.87
31088;BME280;17745;55.914;37.554;2022-08-21T04:24:47;100069.75;;;20.96;36.76
31088;BME280;17745;55.914;37.554;2022-08-21T04:27:18;100063.34;;;21.06;36.56
31088;BME280;17745;55.914;37.554;2022-08-21T04:30:05;100062.50;;;21.19;36.35
31088;BME280;17745;55.914;37.554;2022-08-21T04:32:38;100067.06;;;21.33;36.11
31088;BME280;17745;55.914;37.554;2022-08-21T04:35:15;100062.88;;;21.40;35.96
31088;BME280;17745;55.914;37.554;2022-08-21T04:37:47;100063.72;;;21.50;35.91
31088;BME280;17745;55.914;37.554;2022-08-21T04:40:27;100061.72;;;21.55;35.75
31088;BME280;17745;55.914;37.554;2022-08-21T05:00:29;100067.69;;;22.21;34.62
31088;BME280;17745;55.914;37.554;2022-08-21T05:02:58;100084.06;;;22.24;34.47
31088;BME280;17745;55.914;37.554;2022-08-21T05:05:32;100078.22;;;22.31;34.40
31088;BME280;17745;55.914;37.554;2022-08-21T05:08:05;100075.72;;;22.43;34.13
31088;BME280;17745;55.914;37.554;2022-08-21T05:10:34;100072.00;;;22.53;34.02
31088;BME280;17745;55.914;37.554;2022-08-21T05:13:02;100069.50;;;22.66;33.89
31088;BME280;17745;55.914;37.554;2022-08-21T05:15:32;100073.97;;;22.70;33.74
31088;BME280;17745;55.914;37.554;2022-08-21T05:18:00;100067.50;;;22.80;33.60
31088;BME280;17745;55.914;37.554;2022-08-21T05:20:27;100063.38;;;22.92;33.53
31088;BME280;17745;55.914;37.554;2022-08-21T05:22:55;100068.63;;;23.06;33.37
31088;BME280;17745;55.914;37.554;2022-08-21T05:25:24;100060.06;;;23.12;33.21
31088;BME280;17745;55.914;37.554;2022-08-21T05:27:52;100056.44;;;23.17;33.02
31088;BME280;17745;55.914;37.554;2022-08-21T05:30:20;100059.31;;;23.21;32.88
31088;BME280;17745;55.914;37.554;2022-08-21T05:32:49;100059.78;;;23.23;32.45
31088;BME280;17745;55.914;37.554;2022-08-21T05:35:23;100065.03;;;23.28;32.33
31088;BME280;17745;55.914;37.554;2022-08-21T05:37:51;100059.47;;;23.33;32.27
31088;BME280;17745;55.914;37.554;2022-08-21T05:40:18;100052.34;;;23.37;32.15
31088;BME280;17745;55.914;37.554;2022-08-21T05:42:46;100045.66;;;23.44;32.07
31088;BME280;17745;55.914;37.554;2022-08-21T05:45:14;100056.31;;;23.49;31.99
31088;BME280;17745;55.914;37.554;2022-08-21T05:47:41;100062.66;;;23.53;31.86
31088;BME280;17745;55.914;37.554;2022-08-21T05:50:11;100055.53;;;23.57;31.75
31088;BME280;17745;55.914;37.554;2022-08-21T05:52:38;100058.53;;;23.64;31.56
31088;BME280;17745;55.914;37.554;2022-08-21T05:55:07;100060.41;;;23.73;31.45
31088;BME280;17745;55.914;37.554;2022-08-21T05:57:36;100057.41;;;23.74;31.21
31088;BME280;17745;55.914;37.554;2022-08-21T06:00:08;100052.31;;;23.73;31.20
31088;BME280;17745;55.914;37.554;2022-08-21T06:02:39;100053.75;;;23.79;30.92
31088;BME280;17745;55.914;37.554;2022-08-21T06:05:07;100054.69;;;23.83;30.78
31088;BME280;17745;55.914;37.554;2022-08-21T06:07:36;100047.50;;;23.87;30.72
31088;BME280;17745;55.914;37.554;2022-08-21T06:10:05;100046.69;;;23.95;30.56
31088;BME280;17745;55.914;37.554;2022-08-21T06:12:33;100049.25;;;24.01;30.38
31088;BME280;17745;55.914;37.554;2022-08-21T06:15:00;100051.16;;;24.09;30.27
31088;BME280;17745;55.914;37.554;2022-08-21T06:17:28;100051.13;;;24.18;30.22
31088;BME280;17745;55.914;37.554;2022-08-21T06:19:56;100056.97;;;24.29;30.18
31088;BME280;17745;55.914;37.554;2022-08-21T06:22:23;100050.09;;;24.40;30.16
31088;BME280;17745;55.914;37.554;2022-08-21T06:24:52;100037.50;;;24.44;30.00
31088;BME280;17745;55.914;37.554;2022-08-21T06:27:20;100033.31;;;24.47;29.57
31088;BME280;17745;55.914;37.554;2022-08-21T06:29:47;100042.06;;;24.52;29.34
31088;BME280;17745;55.914;37.554;2022-08-21T06:32:21;100034.03;;;24.65;29.36
31088;BME280;17745;55.914;37.554;2022-08-21T06:34:49;100034.13;;;24.77;29.11
31088;BME280;17745;55.914;37.554;2022-08-21T06:37:17;100035.09;;;24.81;29.03
31088;BME280;17745;55.914;37.554;2022-08-21T06:39:44;100033.31;;;24.86;28.66
31088;BME280;17745;55.914;37.554;2022-08-21T06:42:17;100034.38;;;24.93;28.61
31088;BME280;17745;55.914;37.554;2022-08-21T06:44:46;100033.97;;;25.04;28.30
31088;BME280;17745;55.914;37.554;2022-08-21T06:47:14;100025.31;;;25.10;28.34
31088;BME280;17745;55.914;37.554;2022-08-21T06:49:42;100029.41;;;25.17;28.17
31088;BME280;17745;55.914;37.554;2022-08-21T06:52:10;100022.34;;;25.24;28.08
31088;BME280;17745;55.914;37.554;2022-08-21T06:54:41;100017.19;;;25.32;27.92
31088;BME280;17745;55.914;37.554;2022-08-21T06:57:08;100022.72;;;25.35;27.60
31088;BME280;17745;55.914;37.554;2022-08-21T06:59:37;100022.03;;;25.38;27.54
31088;BME280;17745;55.914;37.554;2022-08-21T07:02:05;100023.59;;;25.48;27.43
31088;BME280;17745;55.914;37.554;2022-08-21T07:04:33;100017.41;;;25.60;27.34
31088;BME280;17745;55.914;37.554;2022-08-21T07:07:01;100021.16;;;25.68;27.12
31088;BME280;17745;55.914;37.554;2022-08-21T07:09:29;100009.44;;;25.76;27.01
31088;BME280;17745;55.914;37.554;2022-08-21T07:12:02;100015.91;;;25.84;26.83
31088;BME280;17745;55.914;37.554;2022-08-21T07:14:30;100017.72;;;25.92;26.35
31088;BME280;17745;55.914;37.554;2022-08-21T07:16:59;100002.47;;;26.00;26.46
31088;BME280;17745;55.914;37.554;2022-08-21T07:19:27;100014.00;;;26.09;26.24
31088;BME280;17745;55.914;37.554;2022-08-21T07:21:58;100012.03;;;26.19;26.07
31088;BME280;17745;55.914;37.554;2022-08-21T07:24:27;100016.22;;;26.29;25.62
31088;BME280;17745;55.914;37.554;2022-08-21T07:26:56;100013.03;;;26.39;25.56
31088;BME280;17745;55.914;37.554;2022-08-21T07:29:24;100007.84;;;26.46;25.47
31088;BME280;17745;55.914;37.554;2022-08-21T07:31:52;100009.50;;;26.51;25.24
31088;BME280;17745;55.914;37.554;2022-08-21T07:34:21;100012.09;;;26.60;24.92
31088;BME280;17745;55.914;37.554;2022-08-21T07:36:51;100019.34;;;26.68;24.57
31088;BME280;17745;55.914;37.554;2022-08-21T07:39:18;100008.56;;;26.72;24.23
31088;BME280;17745;55.914;37.554;2022-08-21T07:41:46;100005.75;;;26.80;23.95
31088;BME280;17745;55.914;37.554;2022-08-21T07:44:14;100005.31;;;26.91;23.86
31088;BME280;17745;55.914;37.554;2022-08-21T07:46:42;99999.03;;;27.03;23.91
31088;BME280;17745;55.914;37.554;2022-08-21T07:49:10;100000.81;;;27.11;23.68
31088;BME280;17745;55.914;37.554;2022-08-21T07:51:40;100003.19;;;27.13;23.26
31088;BME280;17745;55.914;37.554;2022-08-21T07:54:08;100001.09;;;27.22;23.26
31088;BME280;17745;55.914;37.554;2022-08-21T07:56:36;100005.63;;;27.30;23.28
31088;BME280;17745;55.914;37.554;2022-08-21T07:59:04;99994.94;;;27.37;23.27
31088;BME280;17745;55.914;37.554;2022-08-21T08:01:32;99996.03;;;27.49;23.14
31088;BME280;17745;55.914;37.554;2022-08-21T08:04:03;99991.66;;;27.60;23.06
31088;BME280;17745;55.914;37.554;2022-08-21T08:06:30;99989.81;;;27.64;22.75
31088;BME280;17745;55.914;37.554;2022-08-21T08:08:59;99992.53;;;27.64;22.76
31088;BME280;17745;55.914;37.554;2022-08-21T08:11:32;99989.50;;;27.66;22.53
31088;BME280;17745;55.914;37.554;2022-08-21T08:14:00;99996.69;;;27.74;22.28
31088;BME280;17745;55.914;37.554;2022-08-21T08:16:30;100000.81;;;27.84;22.21
31088;BME280;17745;55.914;37.554;2022-08-21T08:18:58;99992.56;;;27.96;22.22
31088;BME280;17745;55.914;37.554;2022-08-21T08:21:28;99996.78;;;28.10;22.09
31088;BME280;17745;55.914;37.554;2022-08-21T08:23:56;99994.06;;;28.26;21.86
31088;BME280;17745;55.914;37.554;2022-08-21T08:26:25;99982.72;;;28.40;21.78
31088;BME280;17745;55.914;37.554;2022-08-21T08:28:53;99978.56;;;28.46;21.71
31088;BME280;17745;55.914;37.554;2022-08-21T08:31:21;99966.69;;;28.54;21.58
31088;BME280;17745;55.914;37.554;2022-08-21T08:33:49;99971.78;;;28.56;21.37
31088;BME280;17745;55.914;37.554;2022-08-21T08:36:17;99968.63;;;28.54;21.21
31088;BME280;17745;55.914;37.554;2022-08-21T08:38:46;99963.13;;;28.50;20.76
31088;BME280;17745;55.914;37.554;2022-08-21T08:41:16;99959.97;;;28.48;20.30
31088;BME280;17745;55.914;37.554;2022-08-21T08:43:49;99956.66;;;28.59;20.13
31088;BME280;17745;55.914;37.554;2022-08-21T08:46:23;99953.88;;;28.75;20.04
31088;BME280;17745;55.914;37.554;2022-08-21T08:48:58;99952.97;;;28.87;19.72
31088;BME280;17745;55.914;37.554;2022-08-21T08:51:37;99950.97;;;29.03;19.65
31088;BME280;17745;55.914;37.554;2022-08-21T08:54:11;99941.19;;;29.22;19.57
31088;BME280;17745;55.914;37.554;2022-08-21T08:56:41;99947.25;;;29.35;19.39
31088;BME280;17745;55.914;37.554;2022-08-21T08:59:14;99942.69;;;29.39;19.38
31088;BME280;17745;55.914;37.554;2022-08-21T09:01:43;99948.06;;;29.35;19.38
31088;BME280;17745;55.914;37.554;2022-08-21T09:04:11;99948.78;;;29.32;19.31
31088;BME280;17745;55.914;37.554;2022-08-21T09:06:55;99953.13;;;29.37;19.37
31088;BME280;17745;55.914;37.554;2022-08-21T09:09:38;99954.50;;;29.47;19.02
31088;BME280;17745;55.914;37.554;2022-08-21T09:12:14;99940.53;;;29.48;18.91
31088;BME280;17745;55.914;37.554;2022-08-21T09:14:54;99950.78;;;29.55;18.97
31088;BME280;17745;55.914;37.554;2022-08-21T09:17:36;99947.06;;;29.67;18.56
31088;BME280;17745;55.914;37.554;2022-08-21T09:20:17;99945.66;;;29.77;18.58
31088;BME280;17745;55.914;37.554;2022-08-21T09:22:57;99941.84;;;29.81;17.86
31088;BME280;17745;55.914;37.554;2022-08-21T09:25:32;99937.22;;;29.86;17.81
31088;BME280;17745;55.914;37.554;2022-08-21T09:28:01;99944.38;;;29.94;17.87
31088;BME280;17745;55.914;37.554;2022-08-21T09:30:32;99942.03;;;29.92;17.74
31088;BME280;17745;55.914;37.554;2022-08-21T09:33:00;99935.84;;;29.99;17.59
31088;BME280;17745;55.914;37.554;2022-08-21T09:35:28;99936.25;;;29.98;17.56
31088;BME280;17745;55.914;37.554;2022-08-21T09:37:58;99942.03;;;29.92;17.44
31088;BME280;17745;55.914;37.554;2022-08-21T09:40:32;99942.78;;;29.93;17.29
31088;BME280;17745;55.914;37.554;2022-08-21T09:43:03;99929.88;;;30.13;17.33
31088;BME280;17745;55.914;37.554;2022-08-21T09:45:34;99941.09;;;30.35;17.19
31088;BME280;17745;55.914;37.554;2022-08-21T09:48:10;99933.81;;;30.46;17.05
31088;BME280;17745;55.914;37.554;2022-08-21T09:50:38;99928.81;;;30.52;16.88
31088;BME280;17745;55.914;37.554;2022-08-21T09:53:15;99937.25;;;30.70;16.97
31088;BME280;17745;55.914;37.554;2022-08-21T09:55:49;99938.66;;;30.91;16.71
31088;BME280;17745;55.914;37.554;2022-08-21T09:58:36;99937.25;;;31.04;16.70
31088;BME280;17745;55.914;37.554;2022-08-21T10:01:06;99937.53;;;31.30;16.61
31088;BME280;17745;55.914;37.554;2022-08-21T10:03:34;99931.31;;;31.33;16.29
31088;BME280;17745;55.914;37.554;2022-08-21T10:06:03;99928.53;;;31.29;16.21
31088;BME280;17745;55.914;37.554;2022-08-21T10:08:36;99931.00;;;31.42;16.31
31088;BME280;17745;55.914;37.554;2022-08-21T10:11:07;99934.66;;;31.57;16.18
31088;BME280;17745;55.914;37.554;2022-08-21T10:13:50;99928.84;;;31.65;16.15
31088;BME280;17745;55.914;37.554;2022-08-21T10:16:30;99934.31;;;31.65;15.85
31088;BME280;17745;55.914;37.554;2022-08-21T10:19:12;99925.34;;;31.69;15.77
31088;BME280;17745;55.914;37.554;2022-08-21T10:21:49;99928.59;;;31.82;15.81
31088;BME280;17745;55.914;37.554;2022-08-21T10:24:25;99923.97;;;31.89;15.89
31088;BME280;17745;55.914;37.554;2022-08-21T10:27:06;99913.88;;;32.01;15.86
31088;BME280;17745;55.914;37.554;2022-08-21T10:29:46;99914.78;;;32.19;15.60
31088;BME280;17745;55.914;37.554;2022-08-21T10:32:29;99919.59;;;32.41;15.61
31088;BME280;17745;55.914;37.554;2022-08-21T10:35:10;99918.09;;;32.61;15.25
31088;BME280;17745;55.914;37.554;2022-08-21T10:37:49;99923.25;;;32.67;14.84
31088;BME280;17745;55.914;37.554;2022-08-21T10:40:25;99921.66;;;32.69;14.72
31088;BME280;17745;55.914;37.554;2022-08-21T10:43:03;99915.81;;;32.74;14.83
31088;BME280;17745;55.914;37.554;2022-08-21T10:45:47;99920.16;;;32.83;14.56
31088;BME280;17745;55.914;37.554;2022-08-21T10:48:23;99915.81;;;32.71;14.39
31088;BME280;17745;55.914;37.554;2022-08-21T10:50:57;99914.56;;;32.54;14.67
31088;BME280;17745;55.914;37.554;2022-08-21T10:53:45;99911.41;;;32.48;14.67
31088;BME280;17745;55.914;37.554;2022-08-21T10:56:19;99909.41;;;32.37;14.80
31088;BME280;17745;55.914;37.554;2022-08-21T10:58:58;99907.72;;;32.18;14.91
31088;BME280;17745;55.914;37.554;2022-08-21T11:01:32;99897.47;;;32.01;14.99
31088;BME280;17745;55.914;37.554;2022-08-21T11:04:11;99907.91;;;31.84;14.98
31088;BME280;17745;55.914;37.554;2022-08-21T11:06:45;99896.56;;;31.82;15.15
31088;BME280;17745;55.914;37.554;2022-08-21T11:09:19;99904.81;;;31.89;15.24
31088;BME280;17745;55.914;37.554;2022-08-21T11:11:50;99897.44;;;31.97;15.15
31088;BME280;17745;55.914;37.554;2022-08-21T11:14:26;99894.31;;;31.99;15.08
31088;BME280;17745;55.914;37.554;2022-08-21T11:17:07;99899.78;;;31.99;14.94
31088;BME280;17745;55.914;37.554;2022-08-21T11:19:45;99898.28;;;32.08;14.87
31088;BME280;17745;55.914;37.554;2022-08-21T11:22:40;99897.94;;;32.17;14.88
31088;BME280;17745;55.914;37.554;2022-08-21T11:25:20;99889.13;;;32.53;14.72
31088;BME280;17745;55.914;37.554;2022-08-21T11:28:04;99881.41;;;32.95;14.53
31088;BME280;17745;55.914;37.554;2022-08-21T11:30:42;99874.00;;;33.32;14.27
31088;BME280;17745;55.914;37.554;2022-08-21T11:33:29;99875.94;;;33.82;13.97
31088;BME280;17745;55.914;37.554;2022-08-21T11:36:20;99872.69;;;34.31;13.66
31088;BME280;17745;55.914;37.554;2022-08-21T11:39:06;99879.03;;;34.17;13.60
31088;BME280;17745;55.914;37.554;2022-08-21T11:41:47;99882.59;;;33.85;13.85
31088;BME280;17745;55.914;37.554;2022-08-21T11:44:32;99883.84;;;33.47;14.06
31088;BME280;17745;55.914;37.554;2022-08-21T11:47:10;99886.94;;;33.24;14.36
31088;BME280;17745;55.914;37.554;2022-08-21T11:49:49;99891.59;;;33.02;14.53
31088;BME280;17745;55.914;37.554;2022-08-21T11:52:28;99893.16;;;32.88;14.61
31088;BME280;17745;55.914;37.554;2022-08-21T11:55:04;99893.87;;;32.74;14.74
31088;BME280;17745;55.914;37.554;2022-08-21T11:57:39;99892.69;;;32.68;14.89
31088;BME280;17745;55.914;37.554;2022-08-21T12:00:16;99890.69;;;32.54;14.83
31088;BME280;17745;55.914;37.554;2022-08-21T12:02:51;99891.41;;;32.40;14.94
31088;BME280;17745;55.914;37.554;2022-08-21T12:05:27;99892.56;;;32.35;15.04
31088;BME280;17745;55.914;37.554;2022-08-21T12:08:35;99899.63;;;32.36;14.90
31088;BME280;17745;55.914;37.554;2022-08-21T12:14:49;99884.59;;;32.08;14.79
31088;BME280;17745;55.914;37.554;2022-08-21T12:18:27;99878.91;;;31.76;14.92
31088;BME280;17745;55.914;37.554;2022-08-21T12:22:17;99869.69;;;31.50;14.92
31088;BME280;17745;55.914;37.554;2022-08-21T12:44:12;99869.63;;;31.91;14.60
31088;BME280;17745;55.914;37.554;2022-08-21T12:50:50;99864.81;;;31.74;14.38
31088;BME280;17745;55.914;37.554;2022-08-21T12:58:16;99866.50;;;31.41;14.72
31088;BME280;17745;55.914;37.554;2022-08-21T13:59:32;99842.16;;;30.83;16.51
31088;BME280;17745;55.914;37.554;2022-08-21T14:02:15;99850.00;;;30.88;16.47
31088;BME280;17745;55.914;37.554;2022-08-21T14:04:54;99840.34;;;30.98;16.45
31088;BME280;17745;55.914;37.554;2022-08-21T14:07:46;99842.75;;;31.07;16.45
31088;BME280;17745;55.914;37.554;2022-08-21T14:11:05;99835.09;;;31.20;16.41
31088;BME280;17745;55.914;37.554;2022-08-21T14:14:34;99837.06;;;31.23;16.40
31088;BME280;17745;55.914;37.554;2022-08-21T14:17:37;99835.81;;;31.17;16.62
31088;BME280;17745;55.914;37.554;2022-08-21T14:20:29;99842.78;;;31.10;16.70
31088;BME280;17745;55.914;37.554;2022-08-21T14:23:10;99844.22;;;31.38;16.63
31088;BME280;17745;55.914;37.554;2022-08-21T14:26:07;99834.03;;;31.91;16.35
31088;BME280;17745;55.914;37.554;2022-08-21T15:03:57;99843.44;;;31.38;16.90
31088;BME280;17745;55.914;37.554;2022-08-21T15:06:41;99843.53;;;31.04;17.21
31088;BME280;17745;55.914;37.554;2022-08-21T15:09:15;99837.12;;;30.89;17.36
31088;BME280;17745;55.914;37.554;2022-08-21T15:11:48;99832.28;;;30.75;17.53
31088;BME280;17745;55.914;37.554;2022-08-21T15:14:50;99843.13;;;30.64;17.80
31088;BME280;17745;55.914;37.554;2022-08-21T15:17:25;99841.75;;;30.50;18.01
31088;BME280;17745;55.914;37.554;2022-08-21T15:20:16;99831.56;;;30.44;18.12
31088;BME280;17745;55.914;37.554;2022-08-21T15:22:48;99836.44;;;30.27;18.31
31088;BME280;17745;55.914;37.554;2022-08-21T15:25:26;99832.63;;;30.05;18.52
31088;BME280;17745;55.914;37.554;2022-08-21T15:27:56;99837.44;;;29.88;18.73
31088;BME280;17745;55.914;37.554;2022-08-21T15:30:26;99828.66;;;29.72;18.93
31088;BME280;17745;55.914;37.554;2022-08-21T15:33:21;99831.59;;;29.59;19.11
31088;BME280;17745;55.914;37.554;2022-08-21T15:39:19;99831.47;;;29.52;19.39
31088;BME280;17745;55.914;37.554;2022-08-21T15:42:27;99837.28;;;29.50;19.47
31088;BME280;17745;55.914;37.554;2022-08-21T15:46:03;99827.34;;;29.38;19.60
31088;BME280;17745;55.914;37.554;2022-08-21T16:22:08;99827.06;;;27.82;21.73
31088;BME280;17745;55.914;37.554;2022-08-21T16:25:05;99824.09;;;27.72;21.87
31088;BME280;17745;55.914;37.554;2022-08-21T17:02:59;99821.72;;;26.20;23.46
31088;BME280;17745;55.914;37.554;2022-08-21T17:05:55;99816.06;;;26.13;23.60
31088;BME280;17745;55.914;37.554;2022-08-21T17:08:33;99814.03;;;26.10;23.60
31088;BME280;17745;55.914;37.554;2022-08-21T17:11:16;99817.44;;;26.07;23.65
31088;BME280;17745;55.914;37.554;2022-08-21T17:13:54;99822.84;;;26.07;23.79
31088;BME280;17745;55.914;37.554;2022-08-21T17:16:28;99821.28;;;26.06;23.79
31088;BME280;17745;55.914;37.554;2022-08-21T17:19:01;99829.41;;;26.06;23.83
31088;BME280;17745;55.914;37.554;2022-08-21T17:21:37;99826.59;;;26.02;23.89
31088;BME280;17745;55.914;37.554;2022-08-21T17:24:31;99828.06;;;26.00;23.98